Impacts METAR Board
IDs:

KPDX - Portland Intl Arpt, OR, US

Updated at: 2300 UTC 19 Jul 2018
Potential Impact None Slight Moderate High
Time 19/11Z 19/12Z 19/13Z 19/14Z 19/15Z 19/16Z 19/17Z 19/18Z 19/19Z 19/20Z 19/21Z 19/22Z 19/23Z
Temp60 60 60 62 62 63 63 64 65 66 67 68 70
Dewpt51 50 50 50 50 50 49 49 48 48 48 49 48
Altim30.17 30.17 30.18 30.19 30.20 30.21 30.22 30.22 30.22 30.21 30.21 30.20 30.18
VIS10 10 10 10 10 10 10 10 10 10 10 10 10
CIG49 29 26 29 30 29 36 32 37 38 41 41 40
CoverBKNBKNBKNBKNOVCOVCOVCOVCOVCOVCOVCOVCBKN
FltCatVFRMVFRMVFRMVFRMVFRMVFRVFRVFRVFRVFRVFRVFRVFR
WX--------------------------
WDir33034033000320340034032033032020
WSpd7 6 6 4 4 7 7 5 5 8 6 9 5
WGst-- -- -- -- -- -- -- -- -- -- -- -- 14
Raw hourly METARs
KPDX 191053Z 33007KT 10SM SCT023 BKN049 16/11 A3017 RMK AO2 SLP214 T01560106
KPDX 191153Z 34006KT 10SM BKN029 16/10 A3017 RMK AO2 SLP216 T01560100 10183 20156 53006
KPDX 191253Z 33006KT 10SM BKN026 16/10 A3018 RMK AO2 SLP218 T01560100
KPDX 191353Z VRB04KT 10SM BKN029 17/10 A3019 RMK AO2 SLP223 T01670100
KPDX 191453Z VRB04KT 10SM OVC030 17/10 A3020 RMK AO2 SLP226 T01670100 53010
KPDX 191553Z 32007KT 10SM BKN029 OVC034 17/10 A3021 RMK AO2 SLP228 T01720100
KPDX 191653Z 34007KT 10SM SCT029 OVC036 17/09 A3022 RMK AO2 SLP231 T01720094
KPDX 191753Z VRB05KT 10SM OVC032 18/09 A3022 RMK AO2 SLP232 T01780094 10178 20156 51005
KPDX 191853Z 34005KT 10SM OVC037 18/09 A3022 RMK AO2 SLP231 T01830089
KPDX 191953Z 32008KT 10SM OVC038 19/09 A3021 RMK AO2 SLP230 T01890089
KPDX 192053Z 33006KT 10SM OVC041 19/09 A3021 RMK AO2 SLP229 T01940089 58003
KPDX 192153Z 32009KT 10SM OVC041 20/09 A3020 RMK AO2 SLP225 T02000094
KPDX 192253Z 02005G14KT 10SM BKN040 21/09 A3018 RMK AO2 SLP220 T02110089



Page loaded:  23:08 UTC  |   04:08 PM Pacific  |   05:08 PM Mountain  |   06:08 PM Central  |   07:08 PM Eastern

 

ADVISORIES

FORECASTS

FORECASTS

OBSERVATIONS

USER TOOLS

ABOUT US